sensor_id;sensor_type;location;lat;lon;timestamp;pressure;altitude;pressure_sealevel;temperature
11424;BMP180;5768;51.476;7.210;2023-05-14T00:03:11;100550.00;;;15.80
11424;BMP180;5768;51.476;7.210;2023-05-14T00:08:13;100546.00;;;15.80
11424;BMP180;5768;51.476;7.210;2023-05-14T00:13:17;100546.00;;;15.70
11424;BMP180;5768;51.476;7.210;2023-05-14T00:18:19;100543.00;;;15.60
11424;BMP180;5768;51.476;7.210;2023-05-14T00:23:21;100541.00;;;15.60
11424;BMP180;5768;51.476;7.210;2023-05-14T00:28:25;100535.00;;;15.50
11424;BMP180;5768;51.476;7.210;2023-05-14T00:33:29;100539.00;;;15.50
11424;BMP180;5768;51.476;7.210;2023-05-14T00:38:33;100529.00;;;15.40
11424;BMP180;5768;51.476;7.210;2023-05-14T00:43:36;100527.00;;;15.30
11424;BMP180;5768;51.476;7.210;2023-05-14T00:48:43;100520.00;;;15.20
11424;BMP180;5768;51.476;7.210;2023-05-14T00:53:47;100516.00;;;15.20
11424;BMP180;5768;51.476;7.210;2023-05-14T00:58:50;100512.00;;;15.10
11424;BMP180;5768;51.476;7.210;2023-05-14T01:03:53;100512.00;;;15.00
11424;BMP180;5768;51.476;7.210;2023-05-14T01:09:05;100501.00;;;15.00
11424;BMP180;5768;51.476;7.210;2023-05-14T01:14:19;100505.00;;;14.90
11424;BMP180;5768;51.476;7.210;2023-05-14T01:19:32;100507.00;;;14.90
11424;BMP180;5768;51.476;7.210;2023-05-14T01:24:38;100495.00;;;14.80
11424;BMP180;5768;51.476;7.210;2023-05-14T01:29:49;100482.00;;;14.80
11424;BMP180;5768;51.476;7.210;2023-05-14T01:34:54;100482.00;;;14.70
11424;BMP180;5768;51.476;7.210;2023-05-14T01:40:03;100490.00;;;14.70
11424;BMP180;5768;51.476;7.210;2023-05-14T01:45:07;100482.00;;;14.70
11424;BMP180;5768;51.476;7.210;2023-05-14T01:50:10;100484.00;;;14.70
11424;BMP180;5768;51.476;7.210;2023-05-14T01:55:14;100475.00;;;14.70
11424;BMP180;5768;51.476;7.210;2023-05-14T02:00:18;100488.00;;;14.70
11424;BMP180;5768;51.476;7.210;2023-05-14T02:05:21;100489.00;;;14.60
11424;BMP180;5768;51.476;7.210;2023-05-14T02:10:24;100477.00;;;14.60
11424;BMP180;5768;51.476;7.210;2023-05-14T02:15:26;100478.00;;;14.50
11424;BMP180;5768;51.476;7.210;2023-05-14T02:20:28;100487.00;;;14.50
11424;BMP180;5768;51.476;7.210;2023-05-14T02:25:32;100481.00;;;14.50
11424;BMP180;5768;51.476;7.210;2023-05-14T02:30:34;100472.00;;;14.50
11424;BMP180;5768;51.476;7.210;2023-05-14T02:35:37;100471.00;;;14.40
11424;BMP180;5768;51.476;7.210;2023-05-14T02:40:40;100470.00;;;14.30
11424;BMP180;5768;51.476;7.210;2023-05-14T02:45:43;100467.00;;;14.20
11424;BMP180;5768;51.476;7.210;2023-05-14T02:50:45;100466.00;;;14.20
11424;BMP180;5768;51.476;7.210;2023-05-14T02:55:49;100475.00;;;14.20
11424;BMP180;5768;51.476;7.210;2023-05-14T03:00:51;100479.00;;;14.10
11424;BMP180;5768;51.476;7.210;2023-05-14T03:05:54;100471.00;;;14.10
11424;BMP180;5768;51.476;7.210;2023-05-14T03:10:57;100470.00;;;14.00
11424;BMP180;5768;51.476;7.210;2023-05-14T03:15:59;100469.00;;;14.10
11424;BMP180;5768;51.476;7.210;2023-05-14T03:21:02;100464.00;;;14.10
11424;BMP180;5768;51.476;7.210;2023-05-14T03:26:06;100463.00;;;14.10
11424;BMP180;5768;51.476;7.210;2023-05-14T03:31:08;100466.00;;;14.10
11424;BMP180;5768;51.476;7.210;2023-05-14T03:36:10;100467.00;;;14.00
11424;BMP180;5768;51.476;7.210;2023-05-14T03:41:14;100459.00;;;14.00
11424;BMP180;5768;51.476;7.210;2023-05-14T03:46:18;100457.00;;;13.90
11424;BMP180;5768;51.476;7.210;2023-05-14T03:51:20;100453.00;;;13.90
11424;BMP180;5768;51.476;7.210;2023-05-14T03:56:24;100451.00;;;13.90
11424;BMP180;5768;51.476;7.210;2023-05-14T04:01:26;100448.00;;;13.90
11424;BMP180;5768;51.476;7.210;2023-05-14T04:06:29;100449.00;;;13.80
11424;BMP180;5768;51.476;7.210;2023-05-14T04:11:33;100457.00;;;13.90
11424;BMP180;5768;51.476;7.210;2023-05-14T04:16:35;100444.00;;;14.00
11424;BMP180;5768;51.476;7.210;2023-05-14T04:21:37;100444.00;;;14.10
11424;BMP180;5768;51.476;7.210;2023-05-14T04:26:41;100432.00;;;14.20
11424;BMP180;5768;51.476;7.210;2023-05-14T04:31:43;100436.00;;;14.20
11424;BMP180;5768;51.476;7.210;2023-05-14T04:36:46;100428.00;;;14.30
11424;BMP180;5768;51.476;7.210;2023-05-14T04:41:50;100428.00;;;14.40
11424;BMP180;5768;51.476;7.210;2023-05-14T04:46:52;100434.00;;;14.60
11424;BMP180;5768;51.476;7.210;2023-05-14T04:51:55;100428.00;;;14.70
11424;BMP180;5768;51.476;7.210;2023-05-14T04:56:58;100433.00;;;14.80
11424;BMP180;5768;51.476;7.210;2023-05-14T05:02:03;100436.00;;;15.00
11424;BMP180;5768;51.476;7.210;2023-05-14T05:07:05;100449.00;;;15.10
11424;BMP180;5768;51.476;7.210;2023-05-14T05:12:09;100446.00;;;15.10
11424;BMP180;5768;51.476;7.210;2023-05-14T05:17:12;100437.00;;;15.20
11424;BMP180;5768;51.476;7.210;2023-05-14T05:22:14;100440.00;;;15.20
11424;BMP180;5768;51.476;7.210;2023-05-14T05:27:18;100446.00;;;15.10
11424;BMP180;5768;51.476;7.210;2023-05-14T05:32:21;100442.00;;;15.10
11424;BMP180;5768;51.476;7.210;2023-05-14T05:37:24;100450.00;;;15.30
11424;BMP180;5768;51.476;7.210;2023-05-14T05:42:27;100448.00;;;15.50
11424;BMP180;5768;51.476;7.210;2023-05-14T05:47:30;100452.00;;;15.70
11424;BMP180;5768;51.476;7.210;2023-05-14T05:52:32;100447.00;;;16.00
11424;BMP180;5768;51.476;7.210;2023-05-14T05:57:36;100448.00;;;16.10
11424;BMP180;5768;51.476;7.210;2023-05-14T06:02:39;100457.00;;;16.30
11424;BMP180;5768;51.476;7.210;2023-05-14T06:07:41;100458.00;;;16.40
11424;BMP180;5768;51.476;7.210;2023-05-14T06:12:45;100460.00;;;16.60
11424;BMP180;5768;51.476;7.210;2023-05-14T06:17:47;100457.00;;;16.80
11424;BMP180;5768;51.476;7.210;2023-05-14T06:22:49;100472.00;;;17.00
11424;BMP180;5768;51.476;7.210;2023-05-14T06:27:53;100470.00;;;17.10
11424;BMP180;5768;51.476;7.210;2023-05-14T06:32:55;100479.00;;;17.30
11424;BMP180;5768;51.476;7.210;2023-05-14T06:37:57;100472.00;;;17.50
11424;BMP180;5768;51.476;7.210;2023-05-14T06:43:01;100475.00;;;17.70
11424;BMP180;5768;51.476;7.210;2023-05-14T06:48:04;100471.00;;;17.90
11424;BMP180;5768;51.476;7.210;2023-05-14T06:53:06;100471.00;;;18.10
11424;BMP180;5768;51.476;7.210;2023-05-14T06:58:10;100453.00;;;18.30
11424;BMP180;5768;51.476;7.210;2023-05-14T07:03:12;100464.00;;;18.50
11424;BMP180;5768;51.476;7.210;2023-05-14T07:08:23;100451.00;;;18.80
11424;BMP180;5768;51.476;7.210;2023-05-14T07:13:27;100459.00;;;19.00
11424;BMP180;5768;51.476;7.210;2023-05-14T07:18:29;100454.00;;;19.20
11424;BMP180;5768;51.476;7.210;2023-05-14T07:23:31;100452.00;;;19.40
11424;BMP180;5768;51.476;7.210;2023-05-14T07:28:37;100443.00;;;19.70
11424;BMP180;5768;51.476;7.210;2023-05-14T07:33:39;100441.00;;;19.90
11424;BMP180;5768;51.476;7.210;2023-05-14T07:38:42;100441.00;;;20.10
11424;BMP180;5768;51.476;7.210;2023-05-14T07:43:45;100445.00;;;20.30
11424;BMP180;5768;51.476;7.210;2023-05-14T07:48:50;100440.00;;;20.50
11424;BMP180;5768;51.476;7.210;2023-05-14T07:53:52;100443.00;;;20.60
11424;BMP180;5768;51.476;7.210;2023-05-14T07:58:56;100443.00;;;20.80
11424;BMP180;5768;51.476;7.210;2023-05-14T08:03:59;100448.00;;;21.00
11424;BMP180;5768;51.476;7.210;2023-05-14T08:09:01;100448.00;;;21.20
11424;BMP180;5768;51.476;7.210;2023-05-14T08:14:06;100447.00;;;21.40
11424;BMP180;5768;51.476;7.210;2023-05-14T08:19:08;100438.00;;;21.50
11424;BMP180;5768;51.476;7.210;2023-05-14T08:24:11;100443.00;;;21.70
11424;BMP180;5768;51.476;7.210;2023-05-14T08:29:15;100444.00;;;21.80
11424;BMP180;5768;51.476;7.210;2023-05-14T08:34:18;100453.00;;;21.90
11424;BMP180;5768;51.476;7.210;2023-05-14T08:39:20;100457.00;;;22.00
11424;BMP180;5768;51.476;7.210;2023-05-14T08:44:32;100446.00;;;22.00
11424;BMP180;5768;51.476;7.210;2023-05-14T08:49:41;100447.00;;;22.10
11424;BMP180;5768;51.476;7.210;2023-05-14T08:54:45;100435.00;;;22.30
11424;BMP180;5768;51.476;7.210;2023-05-14T08:59:52;100429.00;;;22.40
11424;BMP180;5768;51.476;7.210;2023-05-14T09:04:56;100435.00;;;22.50
11424;BMP180;5768;51.476;7.210;2023-05-14T09:10:01;100420.00;;;22.60
11424;BMP180;5768;51.476;7.210;2023-05-14T09:15:07;100421.00;;;22.70
11424;BMP180;5768;51.476;7.210;2023-05-14T09:20:12;100425.00;;;22.80
11424;BMP180;5768;51.476;7.210;2023-05-14T09:25:15;100422.00;;;22.90
11424;BMP180;5768;51.476;7.210;2023-05-14T09:30:19;100424.00;;;23.00
11424;BMP180;5768;51.476;7.210;2023-05-14T09:35:23;100423.00;;;23.10
11424;BMP180;5768;51.476;7.210;2023-05-14T09:40:25;100423.00;;;23.10
11424;BMP180;5768;51.476;7.210;2023-05-14T09:45:30;100417.00;;;23.20
11424;BMP180;5768;51.476;7.210;2023-05-14T09:50:40;100403.00;;;23.30
11424;BMP180;5768;51.476;7.210;2023-05-14T09:55:43;100399.00;;;23.40
11424;BMP180;5768;51.476;7.210;2023-05-14T10:00:47;100395.00;;;23.50
11424;BMP180;5768;51.476;7.210;2023-05-14T10:05:50;100390.00;;;23.50
11424;BMP180;5768;51.476;7.210;2023-05-14T10:10:54;100395.00;;;23.60
11424;BMP180;5768;51.476;7.210;2023-05-14T10:16:07;100400.00;;;23.60
11424;BMP180;5768;51.476;7.210;2023-05-14T10:21:14;100384.00;;;23.70
11424;BMP180;5768;51.476;7.210;2023-05-14T10:26:18;100387.00;;;23.80
11424;BMP180;5768;51.476;7.210;2023-05-14T10:31:47;100377.00;;;23.90
11424;BMP180;5768;51.476;7.210;2023-05-14T10:36:51;100378.00;;;23.90
11424;BMP180;5768;51.476;7.210;2023-05-14T10:41:53;100365.00;;;23.90
11424;BMP180;5768;51.476;7.210;2023-05-14T10:46:58;100374.00;;;24.00
11424;BMP180;5768;51.476;7.210;2023-05-14T10:52:01;100370.00;;;24.10
11424;BMP180;5768;51.476;7.210;2023-05-14T10:57:09;100360.00;;;24.10
11424;BMP180;5768;51.476;7.210;2023-05-14T11:02:23;100355.00;;;24.30
11424;BMP180;5768;51.476;7.210;2023-05-14T11:07:31;100359.00;;;24.50
11424;BMP180;5768;51.476;7.210;2023-05-14T11:12:35;100343.00;;;24.70
11424;BMP180;5768;51.476;7.210;2023-05-14T11:17:41;100353.00;;;25.00
11424;BMP180;5768;51.476;7.210;2023-05-14T11:22:44;100341.00;;;25.20
11424;BMP180;5768;51.476;7.210;2023-05-14T11:27:49;100338.00;;;25.40
11424;BMP180;5768;51.476;7.210;2023-05-14T11:32:54;100326.00;;;25.60
11424;BMP180;5768;51.476;7.210;2023-05-14T11:37:56;100321.00;;;26.00
11424;BMP180;5768;51.476;7.210;2023-05-14T11:42:58;100313.00;;;26.40
11424;BMP180;5768;51.476;7.210;2023-05-14T11:48:15;100323.00;;;26.80
11424;BMP180;5768;51.476;7.210;2023-05-14T11:53:24;100314.00;;;27.20
11424;BMP180;5768;51.476;7.210;2023-05-14T11:58:27;100324.00;;;27.40
11424;BMP180;5768;51.476;7.210;2023-05-14T12:03:34;100320.00;;;27.40
11424;BMP180;5768;51.476;7.210;2023-05-14T12:08:37;100305.00;;;27.40
11424;BMP180;5768;51.476;7.210;2023-05-14T12:13:40;100309.00;;;27.40
11424;BMP180;5768;51.476;7.210;2023-05-14T12:18:44;100312.00;;;27.40
11424;BMP180;5768;51.476;7.210;2023-05-14T12:23:46;100305.00;;;27.50
11424;BMP180;5768;51.476;7.210;2023-05-14T12:28:48;100305.00;;;28.70
11424;BMP180;5768;51.476;7.210;2023-05-14T12:33:52;100302.00;;;30.20
11424;BMP180;5768;51.476;7.210;2023-05-14T12:38:59;100299.00;;;31.00
11424;BMP180;5768;51.476;7.210;2023-05-14T12:44:05;100302.00;;;30.30
11424;BMP180;5768;51.476;7.210;2023-05-14T12:49:09;100294.00;;;31.40
11424;BMP180;5768;51.476;7.210;2023-05-14T12:54:11;100286.00;;;32.60
11424;BMP180;5768;51.476;7.210;2023-05-14T12:59:15;100282.00;;;33.50
11424;BMP180;5768;51.476;7.210;2023-05-14T13:04:19;100279.00;;;34.70
11424;BMP180;5768;51.476;7.210;2023-05-14T13:09:21;100271.00;;;36.10
11424;BMP180;5768;51.476;7.210;2023-05-14T13:14:23;100270.00;;;36.50
11424;BMP180;5768;51.476;7.210;2023-05-14T13:19:26;100263.00;;;37.00
11424;BMP180;5768;51.476;7.210;2023-05-14T13:24:30;100268.00;;;37.50
11424;BMP180;5768;51.476;7.210;2023-05-14T13:29:32;100269.00;;;38.40
11424;BMP180;5768;51.476;7.210;2023-05-14T13:34:35;100259.00;;;39.70
11424;BMP180;5768;51.476;7.210;2023-05-14T13:39:38;100264.00;;;39.70
11424;BMP180;5768;51.476;7.210;2023-05-14T13:44:40;100262.00;;;39.90
11424;BMP180;5768;51.476;7.210;2023-05-14T13:49:44;100257.00;;;40.00
11424;BMP180;5768;51.476;7.210;2023-05-14T13:54:46;100260.00;;;41.20
11424;BMP180;5768;51.476;7.210;2023-05-14T13:59:50;100255.00;;;41.70
11424;BMP180;5768;51.476;7.210;2023-05-14T14:04:54;100242.00;;;41.60
11424;BMP180;5768;51.476;7.210;2023-05-14T14:09:58;100245.00;;;41.60
11424;BMP180;5768;51.476;7.210;2023-05-14T14:15:04;100243.00;;;41.60
11424;BMP180;5768;51.476;7.210;2023-05-14T14:20:10;100232.00;;;42.60
11424;BMP180;5768;51.476;7.210;2023-05-14T14:25:13;100229.00;;;43.90
11424;BMP180;5768;51.476;7.210;2023-05-14T14:30:17;100220.00;;;44.40
11424;BMP180;5768;51.476;7.210;2023-05-14T14:35:22;100222.00;;;44.30
11424;BMP180;5768;51.476;7.210;2023-05-14T14:40:24;100227.00;;;43.60
11424;BMP180;5768;51.476;7.210;2023-05-14T14:45:26;100224.00;;;43.70
11424;BMP180;5768;51.476;7.210;2023-05-14T14:50:30;100212.00;;;44.00
11424;BMP180;5768;51.476;7.210;2023-05-14T14:55:32;100214.00;;;44.70
11424;BMP180;5768;51.476;7.210;2023-05-14T15:00:34;100209.00;;;44.70
11424;BMP180;5768;51.476;7.210;2023-05-14T15:05:38;100208.00;;;44.20
11424;BMP180;5768;51.476;7.210;2023-05-14T15:10:40;100197.00;;;44.00
11424;BMP180;5768;51.476;7.210;2023-05-14T15:15:44;100201.00;;;42.70
11424;BMP180;5768;51.476;7.210;2023-05-14T15:20:48;100206.00;;;42.40
11424;BMP180;5768;51.476;7.210;2023-05-14T15:25:52;100202.00;;;41.10
11424;BMP180;5768;51.476;7.210;2023-05-14T15:30:55;100192.00;;;39.90
11424;BMP180;5768;51.476;7.210;2023-05-14T15:36:00;100197.00;;;38.40
11424;BMP180;5768;51.476;7.210;2023-05-14T15:41:03;100190.00;;;38.20
11424;BMP180;5768;51.476;7.210;2023-05-14T15:46:06;100194.00;;;37.70
11424;BMP180;5768;51.476;7.210;2023-05-14T15:51:11;100187.00;;;36.50
11424;BMP180;5768;51.476;7.210;2023-05-14T15:56:14;100175.00;;;36.00
11424;BMP180;5768;51.476;7.210;2023-05-14T16:01:18;100174.00;;;35.10
11424;BMP180;5768;51.476;7.210;2023-05-14T16:06:24;100171.00;;;34.90
11424;BMP180;5768;51.476;7.210;2023-05-14T16:11:27;100169.00;;;34.00
11424;BMP180;5768;51.476;7.210;2023-05-14T16:16:30;100172.00;;;33.50
11424;BMP180;5768;51.476;7.210;2023-05-14T16:21:35;100175.00;;;33.30
11424;BMP180;5768;51.476;7.210;2023-05-14T16:26:38;100176.00;;;33.70
11424;BMP180;5768;51.476;7.210;2023-05-14T16:31:42;100169.00;;;34.20
11424;BMP180;5768;51.476;7.210;2023-05-14T16:36:45;100159.00;;;34.70
11424;BMP180;5768;51.476;7.210;2023-05-14T16:41:48;100171.00;;;34.40
11424;BMP180;5768;51.476;7.210;2023-05-14T16:46:50;100155.00;;;33.60
11424;BMP180;5768;51.476;7.210;2023-05-14T16:51:54;100164.00;;;32.60
11424;BMP180;5768;51.476;7.210;2023-05-14T16:56:57;100162.00;;;31.70
11424;BMP180;5768;51.476;7.210;2023-05-14T17:02:01;100167.00;;;30.90
11424;BMP180;5768;51.476;7.210;2023-05-14T17:07:04;100166.00;;;30.30
11424;BMP180;5768;51.476;7.210;2023-05-14T17:12:08;100164.00;;;29.90
11424;BMP180;5768;51.476;7.210;2023-05-14T17:17:12;100162.00;;;29.60
11424;BMP180;5768;51.476;7.210;2023-05-14T17:22:16;100168.00;;;29.20
11424;BMP180;5768;51.476;7.210;2023-05-14T17:27:18;100168.00;;;29.00
11424;BMP180;5768;51.476;7.210;2023-05-14T17:32:20;100170.00;;;28.80
11424;BMP180;5768;51.476;7.210;2023-05-14T17:37:25;100169.00;;;28.40
11424;BMP180;5768;51.476;7.210;2023-05-14T17:42:28;100166.00;;;28.10
11424;BMP180;5768;51.476;7.210;2023-05-14T17:47:31;100169.00;;;27.90
11424;BMP180;5768;51.476;7.210;2023-05-14T17:52:36;100180.00;;;27.60
11424;BMP180;5768;51.476;7.210;2023-05-14T17:57:39;100173.00;;;27.30
11424;BMP180;5768;51.476;7.210;2023-05-14T18:02:43;100172.00;;;27.00
11424;BMP180;5768;51.476;7.210;2023-05-14T18:07:48;100173.00;;;26.80
11424;BMP180;5768;51.476;7.210;2023-05-14T18:12:51;100171.00;;;26.50
11424;BMP180;5768;51.476;7.210;2023-05-14T18:17:54;100168.00;;;26.30
11424;BMP180;5768;51.476;7.210;2023-05-14T18:22:59;100169.00;;;26.00
11424;BMP180;5768;51.476;7.210;2023-05-14T18:28:02;100164.00;;;25.80
11424;BMP180;5768;51.476;7.210;2023-05-14T18:33:05;100166.00;;;25.50
11424;BMP180;5768;51.476;7.210;2023-05-14T18:38:08;100167.00;;;25.20
11424;BMP180;5768;51.476;7.210;2023-05-14T18:43:11;100175.00;;;25.00
11424;BMP180;5768;51.476;7.210;2023-05-14T18:48:14;100176.00;;;24.80
11424;BMP180;5768;51.476;7.210;2023-05-14T18:53:18;100179.00;;;24.50
11424;BMP180;5768;51.476;7.210;2023-05-14T18:58:20;100178.00;;;24.30
11424;BMP180;5768;51.476;7.210;2023-05-14T19:03:23;100185.00;;;24.10
11424;BMP180;5768;51.476;7.210;2023-05-14T19:08:27;100182.00;;;23.80
11424;BMP180;5768;51.476;7.210;2023-05-14T19:13:29;100186.00;;;23.50
11424;BMP180;5768;51.476;7.210;2023-05-14T19:18:31;100183.00;;;23.30
11424;BMP180;5768;51.476;7.210;2023-05-14T19:23:35;100189.00;;;23.10
11424;BMP180;5768;51.476;7.210;2023-05-14T19:28:37;100185.00;;;22.90
11424;BMP180;5768;51.476;7.210;2023-05-14T19:33:39;100180.00;;;22.70
11424;BMP180;5768;51.476;7.210;2023-05-14T19:38:43;100187.00;;;22.60
11424;BMP180;5768;51.476;7.210;2023-05-14T19:43:45;100183.00;;;22.40
11424;BMP180;5768;51.476;7.210;2023-05-14T19:48:47;100186.00;;;22.30
11424;BMP180;5768;51.476;7.210;2023-05-14T19:53:50;100182.00;;;22.20
11424;BMP180;5768;51.476;7.210;2023-05-14T19:58:53;100191.00;;;22.10
11424;BMP180;5768;51.476;7.210;2023-05-14T20:03:55;100187.00;;;22.00
11424;BMP180;5768;51.476;7.210;2023-05-14T20:08:59;100188.00;;;21.90
11424;BMP180;5768;51.476;7.210;2023-05-14T20:14:02;100184.00;;;21.80
11424;BMP180;5768;51.476;7.210;2023-05-14T20:19:04;100185.00;;;21.80
11424;BMP180;5768;51.476;7.210;2023-05-14T20:24:08;100191.00;;;21.70
11424;BMP180;5768;51.476;7.210;2023-05-14T20:29:10;100193.00;;;21.60
11424;BMP180;5768;51.476;7.210;2023-05-14T20:34:14;100179.00;;;21.60
11424;BMP180;5768;51.476;7.210;2023-05-14T20:39:17;100180.00;;;21.50
11424;BMP180;5768;51.476;7.210;2023-05-14T20:44:20;100180.00;;;21.40
11424;BMP180;5768;51.476;7.210;2023-05-14T20:49:22;100176.00;;;21.30
11424;BMP180;5768;51.476;7.210;2023-05-14T20:54:26;100175.00;;;21.20
11424;BMP180;5768;51.476;7.210;2023-05-14T20:59:28;100173.00;;;21.10
11424;BMP180;5768;51.476;7.210;2023-05-14T21:04:31;100167.00;;;21.00
11424;BMP180;5768;51.476;7.210;2023-05-14T21:09:36;100163.00;;;20.90
11424;BMP180;5768;51.476;7.210;2023-05-14T21:14:38;100158.00;;;20.70
11424;BMP180;5768;51.476;7.210;2023-05-14T21:19:40;100167.00;;;20.60
11424;BMP180;5768;51.476;7.210;2023-05-14T21:24:44;100158.00;;;20.50
11424;BMP180;5768;51.476;7.210;2023-05-14T21:29:46;100160.00;;;20.50
11424;BMP180;5768;51.476;7.210;2023-05-14T21:34:48;100159.00;;;20.30
11424;BMP180;5768;51.476;7.210;2023-05-14T21:39:52;100151.00;;;20.20
11424;BMP180;5768;51.476;7.210;2023-05-14T21:44:54;100155.00;;;20.20
11424;BMP180;5768;51.476;7.210;2023-05-14T21:49:56;100147.00;;;20.10
11424;BMP180;5768;51.476;7.210;2023-05-14T21:55:00;100145.00;;;20.10
11424;BMP180;5768;51.476;7.210;2023-05-14T22:00:04;100136.00;;;20.00
11424;BMP180;5768;51.476;7.210;2023-05-14T22:05:08;100144.00;;;19.90
11424;BMP180;5768;51.476;7.210;2023-05-14T22:10:13;100138.00;;;19.80
11424;BMP180;5768;51.476;7.210;2023-05-14T22:15:16;100129.00;;;19.60
11424;BMP180;5768;51.476;7.210;2023-05-14T22:20:19;100131.00;;;19.50
11424;BMP180;5768;51.476;7.210;2023-05-14T22:25:24;100132.00;;;19.40
11424;BMP180;5768;51.476;7.210;2023-05-14T22:30:28;100124.00;;;19.30
11424;BMP180;5768;51.476;7.210;2023-05-14T22:35:33;100131.00;;;19.20
11424;BMP180;5768;51.476;7.210;2023-05-14T22:40:38;100121.00;;;19.10
11424;BMP180;5768;51.476;7.210;2023-05-14T22:45:41;100114.00;;;19.00
11424;BMP180;5768;51.476;7.210;2023-05-14T22:50:45;100113.00;;;18.90
11424;BMP180;5768;51.476;7.210;2023-05-14T22:55:48;100113.00;;;18.80
11424;BMP180;5768;51.476;7.210;2023-05-14T23:00:50;100107.00;;;18.80
11424;BMP180;5768;51.476;7.210;2023-05-14T23:05:53;100105.00;;;18.60
11424;BMP180;5768;51.476;7.210;2023-05-14T23:10:56;100106.00;;;18.50
11424;BMP180;5768;51.476;7.210;2023-05-14T23:15:59;100100.00;;;18.40
11424;BMP180;5768;51.476;7.210;2023-05-14T23:21:02;100097.00;;;18.30
11424;BMP180;5768;51.476;7.210;2023-05-14T23:26:05;100087.00;;;18.20
11424;BMP180;5768;51.476;7.210;2023-05-14T23:31:08;100091.00;;;18.10
11424;BMP180;5768;51.476;7.210;2023-05-14T23:36:10;100094.00;;;18.00
11424;BMP180;5768;51.476;7.210;2023-05-14T23:41:14;100085.00;;;17.90
11424;BMP180;5768;51.476;7.210;2023-05-14T23:46:16;100085.00;;;17.90
11424;BMP180;5768;51.476;7.210;2023-05-14T23:51:19;100085.00;;;17.80
11424;BMP180;5768;51.476;7.210;2023-05-14T23:56:23;100062.00;;;17.80
